Time;durP1;ratioP1;P1;durP2;ratioP2;P2;SDS_P1;SDS_P2;PMS_P1;PMS_P2;Temp;Humidity;BMP_temperature;BMP_pressure;BME280_temperature;BME280_humidity;BME280_pressure;Samples;Min_cycle;Max_cycle;Signal;HPM_P1;HPM_P2
2022/09/08 00:00:41;;;;;;;0.40;0.40;;;13.70;99.90;;;;;;5041864;28;20054;-85
2022/09/08 00:03:10;;;;;;;0.82;0.82;;;14.80;99.90;;;;;;5025338;28;20052;-85
2022/09/08 00:06:06;;;;;;;1.25;0.38;;;14.80;99.90;;;;;;5024913;28;20496;-85
2022/09/08 00:08:32;;;;;;;0.30;0.30;;;13.80;99.90;;;;;;5046505;28;20052;-86
2022/09/08 00:11:00;;;;;;;0.25;0.25;;;14.30;99.90;;;;;;5028517;28;20041;-86
2022/09/08 00:13:31;;;;;;;0.30;0.22;;;14.30;99.90;;;;;;5044163;28;20449;-86
2022/09/08 00:16:02;;;;;;;1.58;0.85;;;13.90;99.90;;;;;;5012116;28;20046;-85
2022/09/08 00:18:31;;;;;;;0.25;0.25;;;13.80;99.90;;;;;;5028401;28;20042;-85
2022/09/08 00:20:57;;;;;;;1.63;1.05;;;13.80;99.90;;;;;;5046950;28;20041;-85
2022/09/08 00:23:22;;;;;;;1.85;1.02;;;14.50;99.90;;;;;;5025881;28;20033;-86
2022/09/08 00:25:48;;;;;;;1.45;0.93;;;13.80;99.90;;;;;;5025147;28;20037;-85
2022/09/08 00:28:14;;;;;;;0.38;0.38;;;13.80;99.90;;;;;;5042582;28;20075;-86
2022/09/08 00:30:39;;;;;;;1.05;0.85;;;14.80;99.90;;;;;;5042703;28;20045;-85
2022/09/08 00:33:05;;;;;;;0.98;0.65;;;13.70;99.90;;;;;;5008187;28;20049;-85
2022/09/08 00:35:31;;;;;;;4.03;1.83;;;13.70;99.90;;;;;;5008212;28;20071;-85
2022/09/08 00:37:56;;;;;;;1.20;1.10;;;14.50;99.90;;;;;;5041871;28;20168;-84
2022/09/08 00:40:25;;;;;;;0.10;0.10;;;14.10;99.90;;;;;;5041814;28;20049;-85
2022/09/08 00:43:04;;;;;;;1.25;0.47;;;13.60;99.90;;;;;;5024246;28;20038;-85
2022/09/08 00:45:36;;;;;;;2.50;1.77;;;13.80;99.90;;;;;;5023768;28;20060;-86
2022/09/08 00:48:05;;;;;;;0.95;0.60;;;13.90;99.90;;;;;;5024483;28;20049;-86
2022/09/08 00:50:32;;;;;;;1.10;1.00;;;13.80;99.90;;;;;;5042226;28;20172;-86
2022/09/08 00:53:04;;;;;;;1.80;0.90;;;13.70;99.90;;;;;;5007824;28;20464;-86
2022/09/08 00:55:33;;;;;;;1.23;0.90;;;13.60;99.90;;;;;;5024540;28;20132;-87
2022/09/08 00:57:58;;;;;;;2.67;1.73;;;13.60;99.90;;;;;;5042045;28;20044;-85
2022/09/08 01:00:24;;;;;;;2.13;0.98;;;14.00;99.90;;;;;;5024095;28;20096;-85
2022/09/08 01:02:53;;;;;;;1.55;0.90;;;13.40;99.90;;;;;;5024170;28;20042;-84
2022/09/08 01:05:27;;;;;;;1.40;1.20;;;13.40;99.90;;;;;;5007606;28;20053;-84
2022/09/08 01:14:39;;;;;;;2.85;1.70;;;13.50;99.90;;;;;;4966888;28;20055;-84
2022/09/08 01:17:17;;;;;;;2.47;1.55;;;13.80;99.90;;;;;;5004323;28;20056;-85
2022/09/08 01:19:46;;;;;;;2.45;1.48;;;13.80;99.90;;;;;;5039057;28;20037;-85
2022/09/08 01:22:33;;;;;;;2.80;1.98;;;13.80;99.90;;;;;;5038620;28;20131;-85
2022/09/08 01:25:06;;;;;;;6.07;2.83;;;13.90;99.90;;;;;;5021026;28;20482;-86
2022/09/08 01:27:33;;;;;;;2.75;1.80;;;14.00;99.90;;;;;;5038657;28;20041;-86
2022/09/08 01:30:03;;;;;;;2.53;1.80;;;13.90;99.90;;;;;;5021343;28;20380;-86
2022/09/08 01:32:34;;;;;;;5.88;2.65;;;14.60;99.90;;;;;;5037804;28;20045;-86
2022/09/08 01:35:00;;;;;;;2.85;2.58;;;14.80;99.90;;;;;;5019566;28;20095;-85
2022/09/08 01:37:25;;;;;;;6.82;4.60;;;13.60;99.90;;;;;;5019284;28;20423;-86
2022/09/08 01:39:51;;;;;;;11.23;4.32;;;14.20;99.90;;;;;;5019854;28;20049;-86
2022/09/08 01:42:17;;;;;;;2.70;2.03;;;14.20;99.90;;;;;;5019625;28;20061;-85
2022/09/08 01:44:43;;;;;;;5.32;2.00;;;15.30;99.90;;;;;;5020510;28;20476;-86
2022/09/08 01:47:10;;;;;;;5.85;2.10;;;14.20;99.90;;;;;;5020699;28;20052;-85
2022/09/08 01:49:36;;;;;;;7.63;4.03;;;14.50;99.90;;;;;;5004349;28;20049;-86
2022/09/08 01:52:02;;;;;;;10.05;5.35;;;14.40;99.90;;;;;;5021347;28;20369;-86
2022/09/08 01:54:27;;;;;;;10.02;3.90;;;15.60;99.90;;;;;;5004414;28;20486;-85
2022/09/08 01:56:55;;;;;;;5.85;3.03;;;15.40;99.90;;;;;;5064704;22;20148;-71
2022/09/08 01:59:21;;;;;;;7.10;3.00;;;14.70;99.90;;;;;;5044155;28;20439;-71
2022/09/08 02:01:47;;;;;;;9.38;4.82;;;14.70;99.90;;;;;;5052143;28;20045;-71
2022/09/08 02:04:13;;;;;;;5.18;3.15;;;14.70;99.90;;;;;;5071084;28;20144;-71
2022/09/08 02:06:38;;;;;;;11.43;3.85;;;14.80;99.90;;;;;;5063601;28;20167;-71
2022/09/08 02:09:04;;;;;;;14.73;5.63;;;15.00;99.90;;;;;;5069794;28;20044;-71
2022/09/08 02:11:30;;;;;;;16.33;4.60;;;14.90;99.90;;;;;;5069999;28;20076;-71
2022/09/08 02:13:56;;;;;;;4.32;3.30;;;14.90;99.90;;;;;;5057392;28;20038;-71
2022/09/08 02:16:23;;;;;;;3.85;3.42;;;14.90;99.90;;;;;;5029791;28;20038;-72
2022/09/08 02:18:48;;;;;;;8.40;4.80;;;15.00;99.90;;;;;;5027937;28;20069;-72
2022/09/08 02:21:17;;;;;;;4.57;3.72;;;15.10;99.90;;;;;;5028906;28;20065;-71
2022/09/08 02:23:45;;;;;;;4.18;3.35;;;15.00;99.90;;;;;;5027136;28;20042;-72
2022/09/08 02:26:26;;;;;;;6.00;3.47;;;15.10;99.90;;;;;;5027984;28;20037;-72
2022/09/08 02:28:53;;;;;;;6.30;4.38;;;15.10;99.90;;;;;;5034013;28;20037;-72
2022/09/08 02:31:21;;;;;;;10.27;6.40;;;15.10;99.90;;;;;;5049158;28;20065;-72
2022/09/08 02:33:46;;;;;;;8.60;4.75;;;15.10;99.90;;;;;;5048622;28;20041;-71
2022/09/08 02:36:12;;;;;;;4.63;4.03;;;15.10;99.90;;;;;;5048492;28;20080;-71
2022/09/08 02:38:38;;;;;;;11.15;4.53;;;16.00;99.90;;;;;;5048722;28;20068;-72
2022/09/08 02:41:06;;;;;;;6.32;3.60;;;16.20;99.90;;;;;;5048781;28;20411;-72
2022/09/08 02:43:33;;;;;;;4.90;3.33;;;15.10;99.90;;;;;;5048765;28;20046;-72
2022/09/08 02:46:07;;;;;;;5.78;4.32;;;15.00;99.90;;;;;;5048655;28;20049;-71
2022/09/08 02:48:34;;;;;;;7.68;4.70;;;15.10;99.90;;;;;;5048626;28;20046;-72
2022/09/08 02:51:01;;;;;;;6.00;3.78;;;15.20;99.90;;;;;;5048708;28;20041;-72
2022/09/08 02:53:30;;;;;;;3.35;2.70;;;15.10;99.90;;;;;;5047450;28;20044;-72
2022/09/08 02:55:57;;;;;;;5.13;4.32;;;15.20;99.90;;;;;;5030670;28;20033;-73
2022/09/08 02:58:23;;;;;;;6.25;3.65;;;15.10;99.90;;;;;;5047964;28;20124;-72
2022/09/08 03:00:48;;;;;;;8.65;4.10;;;15.20;99.90;;;;;;5048215;28;20038;-72
2022/09/08 03:03:14;;;;;;;6.18;4.18;;;15.20;99.90;;;;;;5029170;28;20117;-71
2022/09/08 03:05:40;;;;;;;5.25;3.70;;;15.10;99.90;;;;;;5045485;28;20044;-71
2022/09/08 03:08:06;;;;;;;4.50;4.00;;;15.10;99.90;;;;;;5046518;28;20060;-72
2022/09/08 03:10:33;;;;;;;9.27;5.43;;;15.20;99.90;;;;;;5047643;28;20063;-72
2022/09/08 03:13:02;;;;;;;10.18;3.22;;;15.10;99.90;;;;;;5048053;28;20096;-72
2022/09/08 03:15:29;;;;;;;3.97;3.33;;;15.10;99.90;;;;;;5030791;28;20056;-72
2022/09/08 03:17:55;;;;;;;3.53;2.50;;;15.10;99.90;;;;;;5048602;28;20049;-72
2022/09/08 03:20:22;;;;;;;5.25;3.08;;;15.10;99.90;;;;;;5047113;28;20037;-72
2022/09/08 03:22:49;;;;;;;6.57;4.20;;;15.10;99.90;;;;;;5047978;28;20041;-72
2022/09/08 03:25:18;;;;;;;31.80;5.63;;;15.10;99.90;;;;;;5030145;28;20054;-72
2022/09/08 03:27:44;;;;;;;4.28;3.40;;;15.00;99.90;;;;;;5047904;28;20089;-72
2022/09/08 03:30:12;;;;;;;6.07;4.57;;;15.00;99.90;;;;;;5047318;28;20071;-72
2022/09/08 03:32:39;;;;;;;11.80;5.28;;;15.00;99.90;;;;;;5047729;28;20069;-73
2022/09/08 03:35:07;;;;;;;10.68;6.88;;;15.10;99.90;;;;;;5047148;28;20052;-72
2022/09/08 03:37:38;;;;;;;9.15;3.95;;;15.10;99.90;;;;;;5047657;28;20504;-72
2022/09/08 03:40:05;;;;;;;7.13;4.75;;;15.20;99.90;;;;;;5029910;28;20093;-72
2022/09/08 03:42:36;;;;;;;15.05;5.43;;;15.20;99.90;;;;;;5047273;28;20045;-72
2022/09/08 03:45:05;;;;;;;7.13;4.85;;;15.20;99.90;;;;;;5047250;28;20059;-72
2022/09/08 03:47:30;;;;;;;6.47;4.38;;;15.20;99.90;;;;;;5045965;28;20104;-72
2022/09/08 03:49:57;;;;;;;8.07;4.22;;;15.30;99.90;;;;;;5046681;28;20041;-72
2022/09/08 03:52:23;;;;;;;8.65;5.50;;;15.20;99.90;;;;;;5046055;28;20046;-72
2022/09/08 03:54:51;;;;;;;12.00;6.28;;;15.20;99.90;;;;;;5046151;28;20504;-72
2022/09/08 03:57:22;;;;;;;4.60;4.20;;;15.30;99.90;;;;;;5045956;28;20057;-72
2022/09/08 03:59:52;;;;;;;7.78;5.82;;;15.30;99.90;;;;;;5046800;28;20049;-72
2022/09/08 04:02:19;;;;;;;6.32;4.88;;;15.40;99.90;;;;;;5046087;28;20041;-72
2022/09/08 04:04:52;;;;;;;6.75;4.20;;;15.40;99.90;;;;;;5028491;28;20049;-72
2022/09/08 04:07:19;;;;;;;10.40;4.97;;;15.30;99.90;;;;;;5046087;28;20041;-72
2022/09/08 04:09:45;;;;;;;10.68;5.65;;;15.40;99.90;;;;;;5046226;28;20456;-72
2022/09/08 04:12:11;;;;;;;18.33;5.20;;;15.40;99.90;;;;;;5046833;28;20033;-72
2022/09/08 04:14:38;;;;;;;16.30;4.53;;;15.40;99.90;;;;;;5046762;28;20034;-72
2022/09/08 04:17:04;;;;;;;5.90;4.00;;;15.30;99.90;;;;;;5047019;28;20042;-72
2022/09/08 04:19:29;;;;;;;7.53;3.65;;;15.40;99.90;;;;;;5045963;28;20052;-72
2022/09/08 04:21:55;;;;;;;9.65;5.55;;;15.40;99.90;;;;;;5046343;28;20033;-73
2022/09/08 04:24:20;;;;;;;7.38;5.07;;;15.40;99.90;;;;;;5046587;28;20045;-71
2022/09/08 04:26:46;;;;;;;14.13;4.80;;;15.40;99.90;;;;;;5046846;28;20041;-72
2022/09/08 04:29:12;;;;;;;7.45;4.88;;;15.40;99.90;;;;;;5045778;28;20041;-72
2022/09/08 04:31:38;;;;;;;8.32;5.70;;;15.40;99.90;;;;;;5046717;28;20581;-72
2022/09/08 04:34:05;;;;;;;10.13;4.85;;;15.50;99.90;;;;;;5046391;28;20408;-72
2022/09/08 04:36:31;;;;;;;6.25;4.97;;;15.50;99.90;;;;;;5046220;28;20041;-72
2022/09/08 04:38:59;;;;;;;8.50;4.95;;;15.50;99.90;;;;;;5045718;28;20047;-73
2022/09/08 04:41:26;;;;;;;11.63;5.10;;;15.40;99.90;;;;;;5045780;28;20448;-72
2022/09/08 04:43:55;;;;;;;7.28;4.20;;;15.60;99.90;;;;;;5046516;28;20056;-72
2022/09/08 04:46:21;;;;;;;3.72;2.55;;;15.50;99.90;;;;;;5030426;28;20052;-73
2022/09/08 04:48:49;;;;;;;3.78;3.25;;;15.50;99.90;;;;;;5050242;28;20136;-72
2022/09/08 04:51:18;;;;;;;6.03;4.63;;;15.50;99.90;;;;;;5031379;28;20527;-72
2022/09/08 04:53:46;;;;;;;6.00;5.03;;;15.50;99.90;;;;;;5048714;28;20097;-73
2022/09/08 04:56:13;;;;;;;9.65;4.10;;;15.50;99.90;;;;;;5048411;28;20059;-72
2022/09/08 04:58:41;;;;;;;8.27;4.88;;;15.50;99.90;;;;;;5049805;28;20053;-72
2022/09/08 05:01:09;;;;;;;8.00;4.80;;;15.40;99.90;;;;;;5048479;28;20072;-72
2022/09/08 05:03:36;;;;;;;10.10;7.07;;;15.40;99.90;;;;;;5048919;28;20052;-72
2022/09/08 05:06:07;;;;;;;5.95;3.95;;;15.40;99.90;;;;;;5048280;28;20049;-72
2022/09/08 05:08:33;;;;;;;6.70;4.82;;;15.30;99.90;;;;;;5048528;28;20041;-73
2022/09/08 05:11:02;;;;;;;7.45;4.35;;;15.30;99.90;;;;;;5048913;28;20056;-72
2022/09/08 05:13:29;;;;;;;12.57;5.97;;;15.40;99.90;;;;;;5048193;28;20049;-72
2022/09/08 05:16:03;;;;;;;7.90;4.63;;;15.10;99.90;;;;;;5049019;28;20071;-72
2022/09/08 05:18:29;;;;;;;8.85;4.95;;;15.10;99.90;;;;;;5049449;28;20052;-72
2022/09/08 05:20:55;;;;;;;5.95;4.65;;;15.00;99.90;;;;;;5048503;28;20492;-72
2022/09/08 05:23:21;;;;;;;6.53;4.40;;;15.10;99.90;;;;;;5048688;28;20033;-72
2022/09/08 05:25:57;;;;;;;7.63;4.38;;;15.20;99.90;;;;;;5049038;28;20038;-72
2022/09/08 05:28:27;;;;;;;5.45;3.72;;;15.30;99.90;;;;;;5049241;28;20045;-73
2022/09/08 05:30:53;;;;;;;6.55;2.95;;;15.20;99.90;;;;;;5049375;28;20056;-72
2022/09/08 05:33:20;;;;;;;7.15;4.05;;;15.30;99.90;;;;;;5049886;28;20055;-72
2022/09/08 05:35:47;;;;;;;6.20;5.03;;;15.20;99.90;;;;;;5049320;28;20573;-73
2022/09/08 05:38:12;;;;;;;4.82;3.50;;;15.20;99.90;;;;;;5050199;28;20041;-72
2022/09/08 05:40:38;;;;;;;7.78;5.07;;;15.30;99.90;;;;;;5050171;28;20518;-72
2022/09/08 05:43:04;;;;;;;5.60;4.00;;;15.30;99.90;;;;;;5050563;28;20037;-72
2022/09/08 05:45:30;;;;;;;4.97;3.17;;;15.40;99.90;;;;;;5051139;28;20054;-72
2022/09/08 05:47:55;;;;;;;12.43;4.85;;;15.50;99.90;;;;;;5048220;28;20080;-72
2022/09/08 05:50:21;;;;;;;5.85;4.47;;;15.50;99.90;;;;;;5047847;28;20041;-72
2022/09/08 05:52:46;;;;;;;5.15;3.17;;;15.60;99.90;;;;;;5047938;28;20049;-72
2022/09/08 05:55:13;;;;;;;5.65;4.10;;;15.80;99.90;;;;;;5047276;28;20081;-73
2022/09/08 05:57:39;;;;;;;7.32;4.60;;;15.80;99.90;;;;;;5046847;28;20085;-72
2022/09/08 06:00:09;;;;;;;6.78;3.22;;;15.80;99.90;;;;;;5046940;28;20085;-72
2022/09/08 06:02:35;;;;;;;6.78;3.92;;;15.90;99.90;;;;;;5046304;28;20101;-73
2022/09/08 06:05:01;;;;;;;7.53;5.03;;;15.90;99.90;;;;;;5046062;28;20042;-73
2022/09/08 06:07:26;;;;;;;7.00;4.75;;;16.00;99.90;;;;;;5046051;28;20125;-72
2022/09/08 06:09:53;;;;;;;3.95;3.42;;;16.80;99.90;;;;;;5046728;28;20041;-72
2022/09/08 06:12:19;;;;;;;7.30;4.45;;;16.00;99.90;;;;;;5045390;28;20101;-72
2022/09/08 06:14:45;;;;;;;2.13;1.45;;;16.00;99.90;;;;;;5045774;28;20511;-72
2022/09/08 06:17:11;;;;;;;4.45;2.85;;;16.00;99.90;;;;;;5045645;28;20037;-72
2022/09/08 06:19:40;;;;;;;4.10;3.60;;;16.00;99.90;;;;;;5045560;28;20058;-72
2022/09/08 06:22:05;;;;;;;4.75;3.78;;;16.00;99.90;;;;;;5045191;28;20442;-72
2022/09/08 06:24:31;;;;;;;4.65;3.00;;;16.10;99.90;;;;;;5045020;28;20038;-72
2022/09/08 06:27:02;;;;;;;1.63;1.52;;;16.00;99.90;;;;;;5045643;28;20042;-72
2022/09/08 06:29:50;;;;;;;7.80;2.85;;;16.00;99.90;;;;;;5043942;28;20042;-72
2022/09/08 06:32:47;;;;;;;14.82;5.30;;;16.20;99.90;;;;;;5043865;28;20045;-72
2022/09/08 06:35:34;;;;;;;9.77;5.10;;;16.60;99.90;;;;;;5029461;28;20053;-72
2022/09/08 06:38:01;;;;;;;10.70;4.82;;;16.40;99.90;;;;;;5044433;28;20045;-72
2022/09/08 06:40:35;;;;;;;6.43;3.00;;;16.00;99.90;;;;;;5043648;28;20049;-72
2022/09/08 06:43:32;;;;;;;8.02;3.47;;;16.50;99.90;;;;;;5043861;28;20051;-72
2022/09/08 06:45:59;;;;;;;4.65;3.15;;;16.50;99.90;;;;;;5046387;28;20068;-72
2022/09/08 06:48:37;;;;;;;11.65;3.97;;;16.50;99.90;;;;;;5045016;28;20457;-72
2022/09/08 06:51:12;;;;;;;5.57;3.58;;;16.50;99.90;;;;;;5045049;28;20064;-72
2022/09/08 06:53:51;;;;;;;6.22;2.47;;;16.50;99.90;;;;;;5043497;28;20041;-72
2022/09/08 06:56:23;;;;;;;5.80;3.03;;;16.50;99.90;;;;;;5044439;28;20054;-72
2022/09/08 06:58:54;;;;;;;8.82;3.85;;;17.10;99.90;;;;;;5042062;28;20071;-72
2022/09/08 07:01:30;;;;;;;4.88;4.00;;;16.40;99.90;;;;;;5041845;28;20069;-73
2022/09/08 07:04:17;;;;;;;5.18;2.90;;;16.40;99.90;;;;;;5045168;28;20093;-72
2022/09/08 07:06:53;;;;;;;5.57;3.35;;;16.30;99.90;;;;;;5047187;28;20073;-73
2022/09/08 07:09:24;;;;;;;;;;;16.20;99.90;;;;;;5039607;28;20499;-75
2022/09/08 07:12:12;;;;;;;7.90;2.72;;;16.10;99.90;;;;;;5021049;28;19943;-76
2022/09/08 07:15:17;;;;;;;5.50;2.45;;;16.10;99.90;;;;;;5036572;28;20053;-75
2022/09/08 07:17:56;;;;;;;7.40;4.18;;;16.00;99.90;;;;;;5034703;28;20049;-77
2022/09/08 07:20:27;;;;;;;5.65;2.58;;;16.00;99.90;;;;;;5034285;28;20069;-75
2022/09/08 07:23:07;;;;;;;3.45;3.17;;;16.00;99.90;;;;;;5049047;28;20037;-74
2022/09/08 07:25:50;;;;;;;6.97;4.53;;;16.00;99.90;;;;;;5048008;28;20049;-72
2022/09/08 07:28:21;;;;;;;4.55;3.33;;;16.00;99.90;;;;;;5049905;28;20100;-72
2022/09/08 07:30:54;;;;;;;3.83;3.42;;;16.00;99.90;;;;;;5050619;28;20041;-73
2022/09/08 07:33:29;;;;;;;7.72;2.97;;;16.00;99.90;;;;;;5048622;28;20088;-73
2022/09/08 07:36:20;;;;;;;5.13;3.63;;;16.00;99.90;;;;;;5047059;28;20126;-72
2022/09/08 07:38:47;;;;;;;4.50;2.75;;;16.10;99.90;;;;;;5043466;28;20041;-72
2022/09/08 07:41:41;;;;;;;9.65;3.85;;;16.10;99.90;;;;;;5046119;28;20041;-72
2022/09/08 07:44:18;;;;;;;6.10;3.72;;;16.20;99.90;;;;;;5042243;28;20403;-72
2022/09/08 07:46:52;;;;;;;15.60;4.85;;;16.10;99.90;;;;;;5042687;28;20041;-73
2022/09/08 07:49:38;;;;;;;4.95;3.75;;;16.10;99.90;;;;;;5042128;28;20045;-72
2022/09/08 07:52:22;;;;;;;7.60;3.30;;;16.10;99.90;;;;;;5047829;28;20049;-73
2022/09/08 07:55:09;;;;;;;4.63;3.72;;;16.10;99.90;;;;;;5046295;28;20082;-72
2022/09/08 07:57:46;;;;;;;3.97;2.78;;;16.10;99.90;;;;;;5045809;28;20419;-71
2022/09/08 08:00:25;;;;;;;5.25;3.35;;;16.10;99.90;;;;;;5044772;28;20044;-72
2022/09/08 08:03:09;;;;;;;8.82;3.03;;;16.10;99.90;;;;;;5046652;28;20116;-73
2022/09/08 08:05:44;;;;;;;4.00;2.38;;;16.10;99.90;;;;;;5046338;28;20154;-71
2022/09/08 08:08:29;;;;;;;5.68;2.38;;;16.10;99.90;;;;;;5046040;28;20042;-73
2022/09/08 08:11:10;;;;;;;3.35;2.65;;;16.20;99.90;;;;;;5047349;28;20037;-72
2022/09/08 08:14:03;;;;;;;3.42;2.50;;;16.20;99.90;;;;;;5044471;28;20093;-72
2022/09/08 08:16:52;;;;;;;5.82;3.78;;;16.20;99.90;;;;;;5045921;28;20105;-71
2022/09/08 08:19:23;;;;;;;3.75;2.30;;;16.30;99.90;;;;;;5046124;28;20042;-72
2022/09/08 08:22:18;;;;;;;4.55;2.63;;;16.30;99.90;;;;;;5049244;28;20042;-72
2022/09/08 08:24:46;;;;;;;2.40;2.10;;;16.30;99.90;;;;;;5030877;28;20049;-71
2022/09/08 08:27:37;;;;;;;3.58;2.65;;;16.40;99.90;;;;;;5051366;28;20041;-73
2022/09/08 08:30:17;;;;;;;2.22;1.60;;;16.40;99.90;;;;;;5049187;28;20049;-72
2022/09/08 08:32:58;;;;;;;5.88;4.00;;;16.50;99.90;;;;;;5048979;28;20041;-73
2022/09/08 08:35:29;;;;;;;2.88;2.60;;;16.50;99.90;;;;;;5034959;28;20052;-73
2022/09/08 08:37:55;;;;;;;2.65;2.20;;;16.60;99.90;;;;;;5050826;28;20056;-73
2022/09/08 08:40:31;;;;;;;5.55;3.55;;;16.60;99.90;;;;;;5050377;28;20097;-73
2022/09/08 08:44:04;;;;;;;4.50;2.70;;;16.70;99.90;;;;;;5047809;28;20574;-73
2022/09/08 08:46:48;;;;;;;2.03;1.88;;;16.70;99.90;;;;;;4969175;29;20044;-72
2022/09/08 08:49:19;;;;;;;5.50;3.25;;;16.80;99.90;;;;;;4965949;29;20057;-73
2022/09/08 08:51:47;;;;;;;5.28;3.85;;;16.70;99.90;;;;;;5016688;28;20052;-73
2022/09/08 08:54:43;;;;;;;6.65;3.67;;;16.80;99.90;;;;;;5045604;28;20050;-72
2022/09/08 08:57:40;;;;;;;5.53;2.88;;;16.70;99.90;;;;;;5047781;28;20114;-72
2022/09/08 09:00:19;;;;;;;6.90;3.42;;;16.70;99.90;;;;;;5029796;28;20057;-72
2022/09/08 09:03:15;;;;;;;3.45;1.80;;;16.70;99.90;;;;;;5045622;28;20495;-72
2022/09/08 09:06:05;;;;;;;5.78;2.63;;;16.80;99.90;;;;;;5047196;28;20115;-73
2022/09/08 09:08:51;;;;;;;4.20;2.60;;;16.90;99.90;;;;;;5045703;28;20055;-72
2022/09/08 09:11:55;;;;;;;12.63;4.35;;;16.90;99.90;;;;;;5045375;28;20080;-72
2022/09/08 09:14:36;;;;;;;4.55;2.90;;;16.90;99.90;;;;;;5045719;28;20041;-73
2022/09/08 09:17:40;;;;;;;2.17;1.65;;;17.00;99.90;;;;;;5045494;28;20041;-72
2022/09/08 09:20:33;;;;;;;4.43;3.35;;;16.90;99.90;;;;;;4989558;28;20053;-73
2022/09/08 09:23:10;;;;;;;3.30;1.98;;;16.90;99.90;;;;;;5046286;28;20053;-73
2022/09/08 09:25:43;;;;;;;2.03;1.73;;;16.90;99.90;;;;;;5046251;28;20148;-74
2022/09/08 09:28:20;;;;;;;3.70;1.98;;;16.90;99.90;;;;;;5049328;28;20068;-74
2022/09/08 09:31:14;;;;;;;2.17;1.75;;;16.90;99.90;;;;;;5050788;28;20864;-74
2022/09/08 09:34:06;;;;;;;5.28;2.08;;;17.00;99.90;;;;;;5049716;28;20073;-73
2022/09/08 09:36:55;;;;;;;1.25;1.10;;;17.00;99.90;;;;;;5048867;28;20045;-74
2022/09/08 09:39:29;;;;;;;1.42;0.77;;;17.00;99.90;;;;;;5045897;28;20045;-74
2022/09/08 09:42:25;;;;;;;0.80;0.57;;;18.00;99.90;;;;;;5046041;28;20058;-74
2022/09/08 09:45:25;;;;;;;2.40;0.80;;;17.20;99.90;;;;;;5048085;28;20045;-74
2022/09/08 09:48:06;;;;;;;1.17;1.08;;;17.20;99.90;;;;;;5048410;28;20073;-73
2022/09/08 09:50:37;;;;;;;2.00;0.95;;;17.30;99.90;;;;;;5050260;28;20101;-73
2022/09/08 09:53:26;;;;;;;1.05;0.98;;;17.20;99.90;;;;;;5050521;28;20041;-73
2022/09/08 09:56:06;;;;;;;0.60;0.60;;;17.30;99.90;;;;;;5049528;28;20050;-74
2022/09/08 09:58:58;;;;;;;1.08;0.93;;;17.30;99.90;;;;;;5049642;28;20458;-73
2022/09/08 10:01:42;;;;;;;1.58;1.45;;;17.40;99.90;;;;;;5050847;28;20051;-73
2022/09/08 10:04:39;;;;;;;0.22;0.20;;;17.40;99.90;;;;;;5049732;28;20117;-73
2022/09/08 10:07:19;;;;;;;2.78;1.25;;;17.40;99.90;;;;;;5047549;28;20080;-72
2022/09/08 10:10:11;;;;;;;0.15;0.15;;;17.40;99.90;;;;;;5047309;28;20049;-73
2022/09/08 10:13:02;;;;;;;0.40;0.40;;;17.40;99.90;;;;;;5047881;28;20049;-73
2022/09/08 10:16:21;;;;;;;1.38;0.90;;;17.30;99.90;;;;;;5048204;28;20051;-73
2022/09/08 10:19:20;;;;;;;0.30;0.30;;;17.20;99.90;;;;;;5015704;28;20060;-73
2022/09/08 10:22:05;;;;;;;1.95;0.93;;;17.10;99.90;;;;;;5047991;28;20049;-73
2022/09/08 10:24:50;;;;;;;0.20;0.20;;;17.00;99.90;;;;;;5048261;28;20046;-73
2022/09/08 10:27:27;;;;;;;0.45;0.45;;;17.00;99.90;;;;;;5047727;28;20050;-74
2022/09/08 10:30:11;;;;;;;1.15;0.90;;;17.00;99.90;;;;;;5047514;28;20045;-72
2022/09/08 10:33:04;;;;;;;0.45;0.43;;;16.90;99.90;;;;;;5046458;28;20048;-74
2022/09/08 10:35:46;;;;;;;2.88;0.80;;;16.90;99.90;;;;;;5047642;28;20049;-74
2022/09/08 10:38:26;;;;;;;2.30;0.70;;;17.00;99.90;;;;;;5046239;28;20045;-73
2022/09/08 10:40:54;;;;;;;0.40;0.30;;;17.00;99.90;;;;;;5043450;28;20045;-73
2022/09/08 10:43:38;;;;;;;0.00;0.00;;;16.90;99.90;;;;;;5045394;28;20102;-73
2022/09/08 10:46:21;;;;;;;3.42;0.68;;;17.00;99.90;;;;;;5045591;28;20048;-74
2022/09/08 10:49:13;;;;;;;0.00;0.00;;;17.00;99.90;;;;;;5043282;28;20045;-74
2022/09/08 10:51:38;;;;;;;0.20;0.17;;;16.90;99.90;;;;;;5008198;28;20064;-74
2022/09/08 10:54:22;;;;;;;0.00;0.00;;;16.80;99.90;;;;;;5044902;28;20049;-74
2022/09/08 10:56:48;;;;;;;0.70;0.50;;;16.90;99.90;;;;;;5045213;28;20049;-74
2022/09/08 10:59:47;;;;;;;0.20;0.20;;;16.90;99.90;;;;;;5044880;28;20049;-74
2022/09/08 11:02:39;;;;;;;0.10;0.10;;;16.80;99.90;;;;;;5044691;28;20045;-74
2022/09/08 11:05:29;;;;;;;0.20;0.20;;;17.30;99.90;;;;;;5011743;28;20128;-74
2022/09/08 11:08:33;;;;;;;1.77;0.90;;;16.80;99.90;;;;;;5039743;28;20049;-75
2022/09/08 11:11:22;;;;;;;0.00;0.00;;;16.80;99.90;;;;;;5041081;28;20076;-75
2022/09/08 11:14:20;;;;;;;0.20;0.20;;;16.70;99.90;;;;;;5041967;28;20099;-75
2022/09/08 11:17:34;;;;;;;0.00;0.00;;;16.60;99.90;;;;;;5040561;28;20044;-75
2022/09/08 11:20:10;;;;;;;0.75;0.52;;;16.60;99.90;;;;;;4959796;29;20103;-75
2022/09/08 11:22:51;;;;;;;0.00;0.00;;;16.60;99.90;;;;;;4959076;29;20039;-75
2022/09/08 11:25:33;;;;;;;0.10;0.10;;;16.60;99.90;;;;;;5009448;28;20159;-75
2022/09/08 11:28:25;;;;;;;0.17;0.15;;;16.60;99.90;;;;;;5037059;28;20068;-74
2022/09/08 11:31:07;;;;;;;0.52;0.35;;;16.60;99.90;;;;;;5037628;28;20175;-75
2022/09/08 11:34:03;;;;;;;0.85;0.52;;;16.60;99.90;;;;;;5039669;28;20053;-74
2022/09/08 11:37:07;;;;;;;0.00;0.00;;;16.60;99.90;;;;;;5043207;28;20045;-74
2022/09/08 11:40:05;;;;;;;0.22;0.08;;;16.60;99.90;;;;;;5045208;28;20049;-75
2022/09/08 11:43:04;;;;;;;0.60;0.30;;;16.60;99.90;;;;;;5044383;28;20045;-74
2022/09/08 11:45:53;;;;;;;0.00;0.00;;;16.60;99.90;;;;;;5043031;28;20045;-74
2022/09/08 11:48:45;;;;;;;0.00;0.00;;;16.60;99.90;;;;;;5042302;28;20049;-74
2022/09/08 11:51:26;;;;;;;0.00;0.00;;;16.70;99.90;;;;;;5041449;28;20060;-73
2022/09/08 11:54:05;;;;;;;0.28;0.17;;;16.70;99.90;;;;;;5040319;28;20161;-73
2022/09/08 11:56:44;;;;;;;0.00;0.00;;;16.70;99.90;;;;;;5044573;28;20106;-74
2022/09/08 11:59:36;;;;;;;0.30;0.20;;;16.70;99.90;;;;;;5045328;28;20064;-73
2022/09/08 12:02:36;;;;;;;0.30;0.28;;;16.70;99.90;;;;;;5007517;28;20099;-74
2022/09/08 12:05:32;;;;;;;1.20;0.25;;;16.70;99.90;;;;;;5045032;28;20045;-74
2022/09/08 12:08:20;;;;;;;0.28;0.22;;;16.70;99.90;;;;;;5043453;28;20435;-73
2022/09/08 12:11:21;;;;;;;1.08;0.47;;;16.70;99.90;;;;;;5038394;28;20117;-73
2022/09/08 12:14:09;;;;;;;0.28;0.28;;;16.70;99.90;;;;;;5008800;28;20049;-73
2022/09/08 12:17:05;;;;;;;0.10;0.10;;;16.70;99.90;;;;;;5038667;28;20523;-73
2022/09/08 12:19:59;;;;;;;0.00;0.00;;;16.70;99.90;;;;;;5037660;28;20496;-73
2022/09/08 12:22:51;;;;;;;0.00;0.00;;;16.80;99.90;;;;;;5040024;28;20073;-73
2022/09/08 12:25:42;;;;;;;0.20;0.15;;;16.90;99.90;;;;;;5037297;28;20045;-73
2022/09/08 12:28:13;;;;;;;0.30;0.20;;;17.00;99.90;;;;;;5038556;28;20081;-72
2022/09/08 12:31:14;;;;;;;0.00;0.00;;;17.10;99.90;;;;;;5038118;28;20100;-72
2022/09/08 12:34:16;;;;;;;0.15;0.15;;;17.20;99.90;;;;;;5041059;28;20415;-72
2022/09/08 12:36:44;;;;;;;0.47;0.32;;;17.20;99.90;;;;;;5040515;28;20088;-72
2022/09/08 12:39:21;;;;;;;0.03;0.03;;;17.20;99.90;;;;;;5040500;28;20056;-72
2022/09/08 12:42:17;;;;;;;0.00;0.00;;;17.20;99.90;;;;;;5040036;28;20069;-72
2022/09/08 12:45:01;;;;;;;0.00;0.00;;;17.20;99.90;;;;;;5040277;28;20058;-72
2022/09/08 12:48:00;;;;;;;0.00;0.00;;;17.80;99.90;;;;;;5038804;28;20080;-72
2022/09/08 12:50:48;;;;;;;0.20;0.17;;;17.20;99.90;;;;;;5027804;28;20058;-73
2022/09/08 12:53:43;;;;;;;0.45;0.32;;;17.20;99.90;;;;;;5039643;28;20049;-72
2022/09/08 12:56:23;;;;;;;0.00;0.00;;;17.10;99.90;;;;;;5040580;28;20081;-73
2022/09/08 12:59:02;;;;;;;1.45;0.35;;;17.00;99.90;;;;;;5039790;28;20116;-72
2022/09/08 13:01:38;;;;;;;0.20;0.20;;;17.00;99.90;;;;;;5041791;28;20048;-72
2022/09/08 13:04:27;;;;;;;0.00;0.00;;;16.90;99.90;;;;;;5042160;28;20496;-72
2022/09/08 13:07:03;;;;;;;0.03;0.03;;;16.80;99.90;;;;;;5043295;28;20091;-72
2022/09/08 13:09:33;;;;;;;0.03;0.03;;;16.80;99.90;;;;;;5046816;28;20044;-72
2022/09/08 13:12:17;;;;;;;0.00;0.00;;;16.80;99.90;;;;;;5046255;28;20048;-73
2022/09/08 13:14:59;;;;;;;0.00;0.00;;;16.80;99.90;;;;;;5047079;28;20500;-72
2022/09/08 13:17:46;;;;;;;0.13;0.13;;;16.90;99.90;;;;;;5048443;28;20503;-73
2022/09/08 13:20:35;;;;;;;0.15;0.10;;;17.00;99.90;;;;;;5048848;28;20561;-72
2022/09/08 13:23:04;;;;;;;0.20;0.10;;;17.10;99.90;;;;;;5048365;28;20037;-73
2022/09/08 13:25:52;;;;;;;0.00;0.00;;;17.10;99.90;;;;;;5049045;28;20120;-72
2022/09/08 13:28:36;;;;;;;0.10;0.10;;;17.20;99.90;;;;;;5035458;28;20181;-72
2022/09/08 13:31:12;;;;;;;0.05;0.05;;;17.30;99.90;;;;;;5047782;28;20115;-72
2022/09/08 13:33:54;;;;;;;;;;;17.30;99.90;;;;;;5047313;28;20453;-72
2022/09/08 13:36:27;;;;;;;0.00;0.00;;;17.30;99.90;;;;;;5047279;28;19944;-72
2022/09/08 13:39:11;;;;;;;0.35;0.32;;;17.40;99.90;;;;;;5047072;28;20049;-72